createdAt,value
2019-03-18T00:04:01.955Z,99.90
2019-03-18T00:08:56.750Z,99.90
2019-03-18T00:13:52.458Z,99.90
2019-03-18T00:18:52.996Z,99.90
2019-03-18T00:23:49.813Z,99.90
2019-03-18T00:28:43.787Z,99.90
2019-03-18T00:33:37.988Z,99.90
2019-03-18T00:38:35.466Z,99.90
2019-03-18T00:43:32.612Z,99.90
2019-03-18T00:48:28.587Z,99.90
2019-03-18T00:53:23.233Z,99.90
2019-03-18T00:58:19.893Z,99.90
2019-03-18T01:03:18.728Z,99.90
2019-03-18T01:08:13.801Z,99.90
2019-03-18T01:13:08.772Z,99.90
2019-03-18T01:18:05.438Z,99.90
2019-03-18T01:22:59.607Z,99.90
2019-03-18T01:27:53.590Z,99.90
2019-03-18T01:32:50.466Z,99.90
2019-03-18T01:37:44.764Z,99.90
2019-03-18T01:42:38.968Z,99.90
2019-03-18T01:47:33.295Z,99.90
2019-03-18T01:52:29.349Z,99.90
2019-03-18T01:57:23.849Z,99.90
2019-03-18T02:02:22.143Z,99.90
2019-03-18T02:07:16.675Z,99.90
2019-03-18T02:12:14.333Z,99.90
2019-03-18T02:17:09.745Z,99.90
2019-03-18T02:22:06.386Z,99.90
2019-03-18T02:27:01.911Z,99.90
2019-03-18T02:31:56.309Z,99.90
2019-03-18T02:36:52.092Z,99.90
2019-03-18T02:41:46.232Z,99.90
2019-03-18T02:46:40.634Z,99.90
2019-03-18T02:51:36.634Z,99.90
2019-03-18T02:56:31.035Z,99.90
2019-03-18T03:01:26.119Z,99.90
2019-03-18T03:06:21.247Z,99.90
2019-03-18T03:11:15.922Z,99.90
2019-03-18T03:16:25.492Z,99.90
2019-03-18T03:21:09.145Z,99.90
2019-03-18T03:26:06.700Z,99.90
2019-03-18T03:31:05.818Z,99.90
2019-03-18T03:36:00.324Z,99.90
2019-03-18T03:40:55.861Z,99.90
2019-03-18T03:45:50.338Z,99.90
2019-03-18T03:50:44.632Z,99.90
2019-03-18T03:55:39.157Z,99.90
2019-03-18T04:00:38.632Z,99.90
2019-03-18T04:05:33.835Z,99.90
2019-03-18T04:10:31.481Z,99.90
2019-03-18T04:15:25.990Z,99.90
2019-03-18T04:20:20.386Z,99.90
2019-03-18T04:25:15.011Z,99.90
2019-03-18T04:30:12.370Z,99.90
2019-03-18T04:35:07.281Z,99.90
2019-03-18T04:40:02.662Z,99.90
2019-03-18T04:45:00.172Z,99.90
2019-03-18T04:49:59.079Z,99.90
2019-03-18T04:54:53.566Z,99.90
2019-03-18T04:59:49.307Z,99.90
2019-03-18T05:04:46.075Z,99.90
2019-03-18T05:09:43.726Z,99.90
2019-03-18T05:14:44.655Z,99.90
2019-03-18T05:19:39.505Z,99.90
2019-03-18T05:24:36.190Z,99.90
2019-03-18T05:29:30.557Z,99.90
2019-03-18T05:34:25.547Z,99.90
2019-03-18T05:39:23.317Z,99.90
2019-03-18T05:44:18.750Z,99.90
2019-03-18T05:49:16.108Z,99.90
2019-03-18T05:54:10.690Z,99.90
2019-03-18T05:59:09.691Z,99.90
2019-03-18T06:04:06.997Z,99.90
2019-03-18T06:09:06.399Z,99.90
2019-03-18T06:14:02.699Z,99.90
2019-03-18T06:19:00.204Z,99.90
2019-03-18T06:23:55.316Z,99.90
2019-03-18T06:28:50.083Z,99.90
2019-03-18T06:33:44.632Z,99.90
2019-03-18T06:38:42.890Z,99.90
2019-03-18T06:43:39.770Z,99.90
2019-03-18T06:48:40.741Z,99.40
2019-03-18T06:53:35.042Z,97.70
2019-03-18T06:58:33.263Z,95.20
2019-03-18T07:03:29.714Z,96.40
2019-03-18T07:08:26.696Z,97.20
2019-03-18T07:13:25.100Z,96.90
2019-03-18T07:18:25.076Z,95.30
2019-03-18T07:23:19.678Z,83.40
2019-03-18T07:28:18.054Z,67.50
2019-03-18T07:33:12.296Z,62.00
2019-03-18T07:38:08.503Z,54.80
2019-03-18T07:43:07.550Z,53.00
2019-03-18T07:48:06.656Z,50.10
2019-03-18T07:53:03.656Z,50.10
2019-03-18T07:58:00.027Z,43.40
2019-03-18T08:02:56.302Z,37.30
2019-03-18T08:07:53.979Z,31.00
2019-03-18T08:12:49.895Z,29.20
2019-03-18T08:17:44.743Z,27.10
2019-03-18T08:22:40.557Z,26.20
2019-03-18T08:27:38.348Z,25.90
2019-03-18T08:32:33.366Z,25.50
2019-03-18T08:37:30.092Z,25.20
2019-03-18T08:42:26.087Z,24.10
2019-03-18T08:47:20.549Z,23.40
2019-03-18T08:52:16.226Z,23.40
2019-03-18T08:57:13.629Z,24.40
2019-03-18T09:02:09.423Z,25.80
2019-03-18T09:07:05.057Z,27.60
2019-03-18T09:12:01.744Z,33.20
2019-03-18T09:16:56.673Z,37.50
2019-03-18T09:21:50.959Z,40.50
2019-03-18T09:26:46.633Z,37.90
2019-03-18T09:31:41.672Z,40.30
2019-03-18T09:36:38.081Z,42.60
2019-03-18T09:41:32.574Z,48.10
2019-03-18T09:46:28.889Z,55.30
2019-03-18T09:51:23.786Z,63.70
2019-03-18T09:56:18.997Z,66.10
2019-03-18T10:01:13.281Z,71.00
2019-03-18T10:06:09.058Z,70.40
2019-03-18T10:11:06.827Z,76.70
2019-03-18T10:16:08.285Z,80.50
2019-03-18T10:21:05.641Z,79.10
2019-03-18T10:26:00.111Z,81.20
2019-03-18T10:30:56.381Z,80.10
2019-03-18T10:35:54.150Z,75.20
2019-03-18T10:40:50.609Z,72.40
2019-03-18T10:45:46.852Z,71.60
2019-03-18T10:50:44.012Z,65.70
2019-03-18T10:55:41.094Z,57.70
2019-03-18T11:00:38.356Z,52.90
2019-03-18T11:05:39.550Z,47.30
2019-03-18T11:10:37.093Z,49.40
2019-03-18T11:15:36.977Z,55.70
2019-03-18T11:20:34.210Z,63.80
2019-03-18T11:25:34.816Z,69.00
2019-03-18T11:30:31.009Z,74.20
2019-03-18T11:35:32.070Z,78.30
2019-03-18T11:40:30.887Z,79.40
2019-03-18T11:45:30.629Z,47.70
2019-03-18T11:50:27.439Z,47.90
2019-03-18T11:55:30.230Z,56.30
2019-03-18T12:00:27.300Z,62.30
2019-03-18T12:05:23.492Z,56.80
2019-03-18T12:10:20.459Z,61.90
2019-03-18T12:15:21.390Z,69.10
2019-03-18T12:20:24.434Z,69.80
2019-03-18T12:25:15.648Z,73.40
2019-03-18T12:30:26.798Z,73.70
2019-03-18T12:35:21.292Z,75.70
2019-03-18T12:40:18.099Z,74.50
2019-03-18T12:45:19.948Z,75.50
2019-03-18T12:50:31.129Z,79.70
2019-03-18T12:55:15.155Z,82.40
2019-03-18T13:00:16.155Z,82.60
2019-03-18T13:05:13.287Z,84.40
2019-03-18T13:10:16.771Z,83.50
2019-03-18T13:15:19.663Z,83.00
2019-03-18T13:20:16.113Z,80.10
2019-03-18T13:25:13.211Z,80.80
2019-03-18T13:30:10.632Z,97.00
2019-03-18T13:35:09.332Z,99.90
2019-03-18T13:40:03.964Z,99.90
2019-03-18T13:44:59.621Z,99.90
2019-03-18T13:49:55.175Z,99.90
2019-03-18T13:54:51.615Z,99.90
2019-03-18T13:59:46.807Z,99.90
2019-03-18T14:04:42.740Z,99.90
2019-03-18T14:09:40.385Z,99.90
2019-03-18T14:14:35.177Z,99.90
2019-03-18T14:19:30.286Z,99.90
2019-03-18T14:24:25.497Z,99.90
2019-03-18T14:34:21.291Z,99.90
2019-03-18T14:39:16.358Z,99.90
2019-03-18T14:44:14.031Z,99.90
2019-03-18T14:49:10.997Z,99.90
2019-03-18T14:54:06.710Z,99.90
2019-03-18T14:59:07.804Z,99.90
2019-03-18T15:04:05.285Z,99.90
2019-03-18T15:09:03.350Z,99.90
2019-03-18T15:13:59.685Z,99.90
2019-03-18T15:18:55.653Z,99.90
2019-03-18T15:23:54.839Z,99.90
2019-03-18T15:28:52.104Z,99.90
2019-03-18T15:33:50.014Z,99.90
2019-03-18T15:39:08.440Z,99.90
2019-03-18T15:44:03.427Z,99.90
2019-03-18T15:49:03.661Z,99.90
2019-03-18T15:54:01.810Z,99.90
2019-03-18T15:58:56.471Z,99.90
2019-03-18T16:03:56.275Z,99.90
2019-03-18T16:08:50.503Z,99.90
2019-03-18T16:13:47.245Z,99.90
2019-03-18T16:18:41.579Z,99.90
2019-03-18T16:23:36.246Z,99.90
2019-03-18T16:28:32.617Z,99.90
2019-03-18T16:33:29.481Z,99.90
2019-03-18T16:38:26.616Z,99.90
2019-03-18T16:43:23.398Z,99.90
2019-03-18T16:48:25.701Z,99.90
2019-03-18T16:53:21.643Z,99.90
2019-03-18T16:58:20.274Z,99.90
2019-03-18T17:03:17.337Z,99.90
2019-03-18T17:08:15.909Z,99.90
2019-03-18T17:13:10.863Z,99.90
2019-03-18T17:18:08.824Z,99.90
2019-03-18T17:23:05.294Z,99.90
2019-03-18T17:28:03.641Z,99.90
2019-03-18T17:33:00.888Z,99.90
2019-03-18T17:37:56.626Z,99.90
2019-03-18T17:42:59.496Z,99.90
2019-03-18T17:47:57.686Z,99.90
2019-03-18T17:53:02.213Z,99.90
2019-03-18T17:57:50.849Z,99.90
2019-03-18T18:02:48.547Z,99.90
2019-03-18T18:07:44.632Z,99.90
2019-03-18T18:12:46.247Z,99.90
2019-03-18T18:17:47.571Z,99.90
2019-03-18T18:22:44.455Z,99.90
2019-03-18T18:27:38.601Z,99.90
2019-03-18T18:32:34.106Z,99.90
2019-03-18T18:37:29.753Z,99.90
2019-03-18T18:42:25.750Z,99.90
2019-03-18T18:47:22.319Z,99.90
2019-03-18T18:52:18.325Z,99.90
2019-03-18T18:57:12.806Z,99.90
2019-03-18T19:02:07.752Z,99.90
2019-03-18T19:07:05.384Z,99.90
2019-03-18T19:12:01.086Z,99.90
2019-03-18T19:16:57.614Z,99.90
2019-03-18T19:21:53.164Z,99.90
2019-03-18T19:26:52.977Z,99.90
2019-03-18T19:31:49.937Z,99.90
2019-03-18T19:36:47.001Z,99.90
2019-03-18T19:41:43.736Z,99.90
2019-03-18T19:46:40.155Z,99.90
2019-03-18T19:51:42.821Z,99.90
2019-03-18T19:56:41.299Z,99.90
2019-03-18T20:01:35.586Z,99.90
2019-03-18T20:06:31.852Z,99.90
2019-03-18T20:11:31.585Z,99.90
2019-03-18T20:16:26.075Z,99.90
2019-03-18T20:21:31.019Z,99.90
2019-03-18T20:26:34.667Z,99.90
2019-03-18T20:31:29.733Z,99.90
2019-03-18T20:36:27.985Z,99.90
2019-03-18T20:41:25.545Z,99.90
2019-03-18T20:46:20.576Z,99.90
2019-03-18T20:51:17.142Z,99.90
2019-03-18T20:56:11.702Z,99.90
2019-03-18T21:01:10.516Z,99.90
2019-03-18T21:06:08.202Z,99.90
2019-03-18T21:11:10.274Z,99.90
2019-03-18T21:16:10.995Z,99.90
2019-03-18T21:21:08.114Z,99.90
2019-03-18T21:26:09.584Z,99.90
2019-03-18T21:31:05.966Z,99.90
2019-03-18T21:36:36.835Z,99.90
2019-03-18T21:41:22.696Z,99.90
2019-03-18T21:46:19.033Z,99.90
2019-03-18T21:51:14.887Z,99.90
2019-03-18T21:56:27.183Z,99.90
2019-03-18T22:01:36.759Z,99.90
2019-03-18T22:06:37.559Z,99.90
2019-03-18T22:11:46.174Z,99.90
2019-03-18T22:16:50.334Z,99.90
2019-03-18T22:22:07.194Z,99.90
2019-03-18T22:27:09.033Z,99.90
2019-03-18T22:32:13.575Z,99.90
2019-03-18T22:37:15.365Z,99.90
2019-03-18T22:42:13.060Z,99.90
2019-03-18T22:47:08.473Z,99.90
2019-03-18T22:52:03.162Z,99.90
2019-03-18T22:56:58.326Z,99.90
2019-03-18T23:01:54.266Z,99.90
2019-03-18T23:06:49.256Z,99.90
2019-03-18T23:11:46.844Z,99.90
2019-03-18T23:16:45.925Z,99.90
2019-03-18T23:21:41.622Z,99.90
2019-03-18T23:26:36.628Z,99.90
2019-03-18T23:31:35.874Z,99.90
2019-03-18T23:36:31.215Z,99.90
2019-03-18T23:41:25.412Z,99.90
2019-03-18T23:46:23.005Z,99.90
2019-03-18T23:51:21.486Z,99.90
2019-03-18T23:56:15.966Z,99.90
